createdAt,value
2023-02-01T00:01:09.574Z,3.97
2023-02-01T00:06:04.023Z,3.70
2023-02-01T00:08:31.359Z,4.00
2023-02-01T00:11:03.613Z,3.75
2023-02-01T00:13:32.652Z,3.40
2023-02-01T00:16:18.990Z,3.65
2023-02-01T00:18:47.255Z,4.03
2023-02-01T00:21:16.113Z,3.63
2023-02-01T00:23:45.566Z,3.63
2023-02-01T00:26:17.008Z,3.88
2023-02-01T00:28:44.145Z,3.70
2023-02-01T00:31:11.448Z,3.28
2023-02-01T00:33:38.653Z,3.47
2023-02-01T00:36:08.812Z,3.57
2023-02-01T00:38:38.523Z,3.70
2023-02-01T00:41:11.615Z,3.30
2023-02-01T00:43:39.518Z,3.28
2023-02-01T00:46:06.989Z,3.45
2023-02-01T00:48:37.016Z,3.42
2023-02-01T00:51:07.265Z,3.80
2023-02-01T00:53:34.502Z,3.60
2023-02-01T00:56:04.390Z,3.40
2023-02-01T00:58:32.078Z,3.45
2023-02-01T01:01:17.508Z,3.40
2023-02-01T01:03:47.523Z,3.40
2023-02-01T01:06:17.665Z,3.28
2023-02-01T01:08:48.360Z,3.63
2023-02-01T01:11:20.648Z,3.15
2023-02-01T01:13:49.478Z,3.45
2023-02-01T01:16:16.854Z,3.70
2023-02-01T01:18:46.361Z,3.50
2023-02-01T01:21:17.774Z,3.38
2023-02-01T01:23:46.041Z,3.67
2023-02-01T01:26:24.891Z,3.33
2023-02-01T01:28:52.616Z,3.00
2023-02-01T01:31:21.580Z,3.70
2023-02-01T01:33:56.899Z,3.03
2023-02-01T01:36:24.527Z,3.58
2023-02-01T01:38:51.367Z,3.70
2023-02-01T01:41:22.085Z,2.83
2023-02-01T01:43:50.662Z,3.20
2023-02-01T01:46:23.173Z,3.30
2023-02-01T01:49:04.428Z,3.25
2023-02-01T01:51:33.785Z,3.10
2023-02-01T01:54:33.720Z,3.42
2023-02-01T01:57:05.564Z,3.20
2023-02-01T01:59:35.731Z,3.10
2023-02-01T02:02:02.994Z,3.08
2023-02-01T02:04:32.738Z,3.38
2023-02-01T02:07:07.188Z,2.80
2023-02-01T02:09:37.009Z,3.28
2023-02-01T02:12:04.684Z,3.20
2023-02-01T02:14:32.487Z,3.30
2023-02-01T02:17:17.488Z,3.60
2023-02-01T02:20:10.700Z,2.78
2023-02-01T02:23:12.710Z,2.70
2023-02-01T02:25:54.442Z,3.00
2023-02-01T02:28:50.732Z,3.10
2023-02-01T02:31:36.431Z,3.22
2023-02-01T02:34:32.944Z,3.17
2023-02-01T02:37:06.655Z,2.95
2023-02-01T02:39:58.987Z,3.00
2023-02-01T02:42:58.521Z,3.10
2023-02-01T02:46:03.583Z,2.85
2023-02-01T02:48:43.385Z,3.03
2023-02-01T02:51:38.387Z,2.60
2023-02-01T02:54:32.928Z,2.80
2023-02-01T02:57:22.106Z,3.03
2023-02-01T03:00:07.841Z,2.55
2023-02-01T03:02:53.762Z,3.30
2023-02-01T03:05:22.138Z,3.47
2023-02-01T03:08:12.321Z,2.85
2023-02-01T03:10:47.738Z,2.97
2023-02-01T03:13:21.157Z,3.00
2023-02-01T03:15:54.944Z,2.83
2023-02-01T03:18:32.297Z,2.90
2023-02-01T03:21:04.952Z,2.95
2023-02-01T03:23:35.712Z,2.80
2023-02-01T03:26:07.854Z,2.80
2023-02-01T03:28:38.149Z,2.90
2023-02-01T03:31:06.022Z,2.97
2023-02-01T03:33:33.678Z,2.72
2023-02-01T03:36:11.290Z,3.00
2023-02-01T03:38:44.598Z,2.72
2023-02-01T03:41:19.530Z,2.53
2023-02-01T03:43:51.276Z,3.10
2023-02-01T03:46:34.270Z,2.50
2023-02-01T03:49:08.040Z,2.90
2023-02-01T03:51:39.596Z,3.28
2023-02-01T03:54:10.327Z,2.83
2023-02-01T03:56:39.432Z,2.72
2023-02-01T03:59:06.595Z,2.70
2023-02-01T04:01:34.079Z,2.60
2023-02-01T04:04:01.236Z,2.88
2023-02-01T04:06:28.972Z,2.67
2023-02-01T04:08:55.802Z,2.80
2023-02-01T04:11:23.170Z,2.50
2023-02-01T04:13:52.532Z,2.80
2023-02-01T04:16:19.430Z,2.70
2023-02-01T04:18:46.642Z,2.85
2023-02-01T04:21:13.479Z,2.55
2023-02-01T04:23:40.309Z,2.70
2023-02-01T04:26:07.729Z,3.10
2023-02-01T04:28:34.468Z,2.80
2023-02-01T04:31:01.403Z,2.53
2023-02-01T04:33:28.233Z,2.53
2023-02-01T04:35:55.189Z,3.15
2023-02-01T04:38:22.077Z,2.40
2023-02-01T04:40:50.206Z,2.60
2023-02-01T04:48:16.573Z,2.35
2023-02-01T04:50:49.463Z,2.78
2023-02-01T04:53:17.607Z,2.75
2023-02-01T04:58:12.121Z,2.60
2023-02-01T05:00:39.582Z,2.30
2023-02-01T05:03:08.708Z,2.83
2023-02-01T05:05:35.606Z,2.35
2023-02-01T05:08:02.467Z,2.45
2023-02-01T05:10:29.525Z,2.65
2023-02-01T05:13:15.436Z,2.80
2023-02-01T05:15:42.402Z,2.58
2023-02-01T05:18:09.476Z,2.72
2023-02-01T05:20:36.321Z,2.63
2023-02-01T05:23:03.555Z,2.53
2023-02-01T05:25:30.741Z,2.90
2023-02-01T05:27:57.543Z,2.40
2023-02-01T05:30:24.835Z,2.75
2023-02-01T05:32:53.128Z,2.35
2023-02-01T05:37:50.133Z,2.83
2023-02-01T05:40:17.850Z,2.50
2023-02-01T05:42:44.660Z,2.83
2023-02-01T05:45:12.183Z,2.90
2023-02-01T05:47:39.129Z,2.90
2023-02-01T05:50:06.996Z,2.65
2023-02-01T05:52:34.715Z,2.58
2023-02-01T05:55:02.436Z,2.78
2023-02-01T05:57:29.735Z,2.42
2023-02-01T05:59:56.621Z,3.20
2023-02-01T06:02:25.211Z,3.30
2023-02-01T06:04:52.838Z,2.85
2023-02-01T06:07:23.283Z,2.70
2023-02-01T06:09:51.052Z,3.35
2023-02-01T06:12:20.685Z,3.38
2023-02-01T06:14:50.111Z,3.67
2023-02-01T06:17:17.135Z,4.65
2023-02-01T18:12:21.386Z,11.10
2023-02-01T18:14:48.898Z,11.65
2023-02-01T18:19:43.646Z,11.13
2023-02-01T18:22:19.507Z,10.68
2023-02-01T18:24:47.003Z,11.07
2023-02-01T18:27:14.308Z,10.38
2023-02-01T18:29:41.127Z,10.75
2023-02-01T18:32:11.090Z,10.80
2023-02-01T18:34:38.516Z,10.27
2023-02-01T18:37:06.110Z,10.45
2023-02-01T18:39:32.929Z,10.45
2023-02-01T18:42:00.540Z,10.30
2023-02-01T18:44:27.353Z,10.50
2023-02-01T18:46:54.153Z,10.45
2023-02-01T18:49:21.012Z,10.73
2023-02-01T18:51:48.086Z,9.43
2023-02-01T18:54:14.907Z,10.30
2023-02-01T18:56:42.927Z,10.05
2023-02-01T19:01:39.169Z,9.95
2023-02-01T19:04:21.121Z,10.55
2023-02-01T19:06:52.720Z,9.75
2023-02-01T19:09:19.566Z,9.13
2023-02-01T19:11:46.503Z,9.75
2023-02-01T19:14:13.544Z,9.55
2023-02-01T19:16:40.441Z,9.27
2023-02-01T19:19:08.328Z,10.13
2023-02-01T19:21:35.195Z,9.38
2023-02-01T19:24:04.437Z,10.07
2023-02-01T19:26:31.300Z,9.50
2023-02-01T19:28:58.898Z,9.23
2023-02-01T19:31:25.803Z,8.63
2023-02-01T19:33:52.823Z,9.23
2023-02-01T19:36:19.653Z,9.40
2023-02-01T19:38:46.807Z,9.10
2023-02-01T19:41:13.601Z,8.53
2023-02-01T19:43:40.443Z,9.30
2023-02-01T19:46:07.344Z,8.48
2023-02-01T19:48:34.421Z,8.75
2023-02-01T19:51:01.391Z,8.27
2023-02-01T19:53:29.437Z,8.80
2023-02-01T19:58:25.904Z,9.13
2023-02-01T20:00:56.679Z,8.23
2023-02-01T20:03:24.180Z,8.45
2023-02-01T20:05:58.325Z,8.35
2023-02-01T20:08:26.048Z,7.82
2023-02-01T20:10:53.527Z,8.05
2023-02-01T20:13:20.602Z,8.40
2023-02-01T20:15:47.516Z,7.93
2023-02-01T20:18:14.340Z,7.78
2023-02-01T20:20:42.535Z,7.88
2023-02-01T20:23:11.836Z,7.50
2023-02-01T20:25:39.720Z,7.95
2023-02-01T20:28:07.112Z,7.22
2023-02-01T20:30:34.489Z,7.68
2023-02-01T20:33:01.343Z,7.65
2023-02-01T20:35:29.147Z,8.07
2023-02-01T20:37:57.182Z,7.43
2023-02-01T20:42:54.486Z,7.32
2023-02-01T20:45:22.172Z,7.70
2023-02-01T20:47:52.948Z,6.95
2023-02-01T20:50:20.767Z,7.53
2023-02-01T20:52:47.601Z,7.18
2023-02-01T20:55:14.988Z,7.53
2023-02-01T20:57:42.379Z,7.00
2023-02-01T21:00:10.327Z,7.25
2023-02-01T21:02:37.545Z,7.28
2023-02-01T21:05:04.554Z,6.80
2023-02-01T21:07:31.399Z,7.47
2023-02-01T21:09:58.211Z,7.07
2023-02-01T21:12:25.313Z,6.70
2023-02-01T21:14:52.131Z,7.13
2023-02-01T21:17:19.536Z,7.25
2023-02-01T21:19:46.307Z,6.43
2023-02-01T21:22:14.950Z,6.85
2023-02-01T21:24:42.565Z,6.47
2023-02-01T21:27:13.270Z,6.63
2023-02-01T21:29:40.231Z,6.25
2023-02-01T21:32:11.070Z,6.30
2023-02-01T21:34:37.888Z,6.18
2023-02-01T21:37:04.663Z,6.60
2023-02-01T21:39:32.005Z,6.28
2023-02-01T21:42:13.787Z,6.57
2023-02-01T21:44:46.248Z,6.47
2023-02-01T21:47:14.975Z,6.22
2023-02-01T21:49:42.238Z,6.20
2023-02-01T21:52:10.119Z,6.03
2023-02-01T21:54:38.890Z,6.60
2023-02-01T21:57:12.077Z,5.95
2023-02-01T21:59:40.646Z,6.38
2023-02-01T22:02:16.197Z,6.28
2023-02-01T22:04:44.003Z,5.90
2023-02-01T22:07:14.074Z,6.18
2023-02-01T22:09:44.038Z,5.75
2023-02-01T22:12:14.592Z,5.60
2023-02-01T22:14:44.842Z,5.93
2023-02-01T22:17:15.430Z,5.70
2023-02-01T22:19:42.613Z,6.18
